Time,TemperatureF,DewpointF,PressureIn,WindDirection,WindDirectionDegrees,WindSpeedMPH,WindSpeedGustMPH,Humidity,HourlyPrecipIn,Conditions,Clouds,dailyrainin,SoftwareType,DateUTC
2013-07-18 00:12:00,75.9,72.1,30.07,North,-999,0.0,-999.0,88,-99.99,,,-99.99,Acu-Link.com,2013-07-18 05:12:00,
2013-07-18 00:28:00,75.9,72.1,30.07,North,-999,0.0,-999.0,88,-99.99,,,-99.99,Acu-Link.com,2013-07-18 05:28:00,
2013-07-18 00:43:00,75.7,71.9,30.07,North,-999,0.0,-999.0,88,-99.99,,,-99.99,Acu-Link.com,2013-07-18 05:43:00,
2013-07-18 00:58:00,75.0,71.9,30.07,North,-999,0.0,-999.0,90,-99.99,,,-99.99,Acu-Link.com,2013-07-18 05:58:00,
2013-07-18 01:14:00,74.2,71.4,30.07,North,-999,0.0,-999.0,91,-99.99,,,-99.99,Acu-Link.com,2013-07-18 06:14:00,
2013-07-18 01:29:00,73.9,71.7,30.07,North,-999,0.0,-999.0,93,-99.99,,,-99.99,Acu-Link.com,2013-07-18 06:29:00,
2013-07-18 01:44:00,72.4,70.9,30.06,North,-999,0.0,-999.0,95,-99.99,,,-99.99,Acu-Link.com,2013-07-18 06:44:00,
2013-07-18 02:00:00,71.5,70.9,30.06,North,-999,0.0,-999.0,98,-99.99,,,-99.99,Acu-Link.com,2013-07-18 07:00:00,
2013-07-18 02:15:00,71.2,70.9,30.05,North,-999,0.0,-999.0,99,-99.99,,,-99.99,Acu-Link.com,2013-07-18 07:15:00,
2013-07-18 02:31:00,71.2,70.6,30.06,North,-999,0.0,-999.0,98,-99.99,,,-99.99,Acu-Link.com,2013-07-18 07:31:00,
2013-07-18 02:46:00,72.1,70.9,30.06,North,-999,0.0,-999.0,96,-99.99,,,-99.99,Acu-Link.com,2013-07-18 07:46:00,
2013-07-18 03:02:00,71.5,70.6,30.06,North,-999,0.0,-999.0,97,-99.99,,,-99.99,Acu-Link.com,2013-07-18 08:02:00,
2013-07-18 03:17:00,71.3,71.0,30.05,North,-999,0.0,-999.0,99,-99.99,,,-99.99,Acu-Link.com,2013-07-18 08:17:00,
2013-07-18 03:32:00,71.7,70.8,30.05,North,-999,0.0,-999.0,97,-99.99,,,-99.99,Acu-Link.com,2013-07-18 08:32:00,
2013-07-18 03:47:00,71.4,70.8,30.05,North,-999,0.0,-999.0,98,-99.99,,,-99.99,Acu-Link.com,2013-07-18 08:47:00,
2013-07-18 04:02:00,70.9,70.6,30.05,North,-999,0.0,-999.0,99,-99.99,,,-99.99,Acu-Link.com,2013-07-18 09:02:00,
2013-07-18 04:17:00,71.0,70.7,30.05,North,-999,0.0,-999.0,99,-99.99,,,-99.99,Acu-Link.com,2013-07-18 09:17:00,
2013-07-18 04:32:00,70.5,70.2,30.04,North,-999,0.0,-999.0,99,-99.99,,,-99.99,Acu-Link.com,2013-07-18 09:32:00,
2013-07-18 04:48:00,70.2,69.9,30.04,North,-999,0.0,-999.0,99,-99.99,,,-99.99,Acu-Link.com,2013-07-18 09:48:00,
2013-07-18 05:03:00,69.8,69.5,30.04,North,-999,0.0,-999.0,99,-99.99,,,-99.99,Acu-Link.com,2013-07-18 10:03:00,
2013-07-18 05:18:00,70.2,69.9,30.04,North,-999,0.0,-999.0,99,-99.99,,,-99.99,Acu-Link.com,2013-07-18 10:18:00,
2013-07-18 05:33:00,70.0,69.7,30.04,North,-999,0.0,-999.0,99,-99.99,,,-99.99,Acu-Link.com,2013-07-18 10:33:00,
2013-07-18 05:49:00,69.9,69.6,30.03,North,-999,0.0,-999.0,99,-99.99,,,-99.99,Acu-Link.com,2013-07-18 10:49:00,
2013-07-18 06:04:00,70.1,69.8,30.03,North,-999,0.0,-999.0,99,-99.99,,,-99.99,Acu-Link.com,2013-07-18 11:04:00,
2013-07-18 06:19:00,70.2,69.9,30.03,North,-999,0.0,-999.0,99,-99.99,,,-99.99,Acu-Link.com,2013-07-18 11:19:00,
2013-07-18 06:35:00,70.5,70.2,30.03,North,-999,0.0,-999.0,99,-99.99,,,-99.99,Acu-Link.com,2013-07-18 11:35:00,
2013-07-18 06:50:00,72.3,71.7,30.03,North,-999,0.0,-999.0,98,-99.99,,,-99.99,Acu-Link.com,2013-07-18 11:50:00,
2013-07-18 07:05:00,74.8,72.6,30.03,North,-999,0.0,-999.0,93,-99.99,,,-99.99,Acu-Link.com,2013-07-18 12:05:00,
2013-07-18 07:21:00,77.2,73.7,30.03,North,-999,0.0,-999.0,89,-99.99,,,-99.99,Acu-Link.com,2013-07-18 12:21:00,
2013-07-18 07:36:00,77.4,74.2,30.02,North,-999,0.0,-999.0,90,-99.99,,,-99.99,Acu-Link.com,2013-07-18 12:36:00,
2013-07-18 07:51:00,79.2,74.6,30.02,North,-999,0.0,-999.0,86,-99.99,,,-99.99,Acu-Link.com,2013-07-18 12:51:00,
2013-07-18 08:07:00,80.4,75.5,30.02,North,-999,0.0,-999.0,85,-99.99,,,-99.99,Acu-Link.com,2013-07-18 13:07:00,
2013-07-18 08:22:00,82.0,75.6,30.02,North,-999,0.0,-999.0,81,-99.99,,,-99.99,Acu-Link.com,2013-07-18 13:22:00,
2013-07-18 08:37:00,83.2,76.4,30.01,North,-999,3.2,-999.0,80,-99.99,,,-99.99,Acu-Link.com,2013-07-18 13:37:00,
2013-07-18 08:53:00,84.0,75.6,30.01,North,-999,9.6,-999.0,76,-99.99,,,-99.99,Acu-Link.com,2013-07-18 13:53:00,
2013-07-18 09:08:00,83.4,75.8,30.02,North,-999,4.8,-999.0,78,-99.99,,,-99.99,Acu-Link.com,2013-07-18 14:08:00,
2013-07-18 09:23:00,84.3,74.7,30.01,North,-999,9.6,-999.0,73,-99.99,,,-99.99,Acu-Link.com,2013-07-18 14:23:00,
2013-07-18 09:38:00,84.2,74.2,30.01,North,-999,9.6,-999.0,72,-99.99,,,-99.99,Acu-Link.com,2013-07-18 14:38:00,
2013-07-18 09:54:00,85.5,75.4,30.01,North,-999,1.6,-999.0,72,-99.99,,,-99.99,Acu-Link.com,2013-07-18 14:54:00,
2013-07-18 10:09:00,85.9,75.4,30.00,North,-999,4.8,-999.0,71,-99.99,,,-99.99,Acu-Link.com,2013-07-18 15:09:00,
2013-07-18 10:24:00,86.7,74.0,30.00,North,-999,9.6,-999.0,66,-99.99,,,-99.99,Acu-Link.com,2013-07-18 15:24:00,
2013-07-18 10:40:00,85.6,72.9,30.00,North,-999,16.1,-999.0,66,-99.99,,,-99.99,Acu-Link.com,2013-07-18 15:40:00,
2013-07-18 10:55:00,86.4,73.2,30.00,North,-999,14.5,-999.0,65,-99.99,,,-99.99,Acu-Link.com,2013-07-18 15:55:00,
2013-07-18 11:10:00,87.9,75.1,29.99,North,-999,4.8,-999.0,66,-99.99,,,-99.99,Acu-Link.com,2013-07-18 16:10:00,
2013-07-18 11:26:00,89.8,75.5,29.99,North,-999,8.0,-999.0,63,-99.99,,,-99.99,Acu-Link.com,2013-07-18 16:26:00,
2013-07-18 11:41:00,87.8,74.1,29.98,North,-999,12.8,-999.0,64,-99.99,,,-99.99,Acu-Link.com,2013-07-18 16:41:00,
2013-07-18 11:56:00,89.4,75.1,29.98,North,-999,6.4,-999.0,63,-99.99,,,-99.99,Acu-Link.com,2013-07-18 16:56:00,
2013-07-18 12:11:00,90.1,75.3,29.97,North,-999,14.5,-999.0,62,-99.99,,,-99.99,Acu-Link.com,2013-07-18 17:11:00,
2013-07-18 12:26:00,90.4,75.1,29.97,North,-999,8.0,-999.0,61,-99.99,,,-99.99,Acu-Link.com,2013-07-18 17:26:00,
2013-07-18 12:42:00,90.6,75.3,29.97,North,-999,4.8,-999.0,61,-99.99,,,-99.99,Acu-Link.com,2013-07-18 17:42:00,
2013-07-18 12:57:00,90.4,74.1,29.96,North,-999,9.6,-999.0,59,-99.99,,,-99.99,Acu-Link.com,2013-07-18 17:57:00,
2013-07-18 13:12:00,90.4,75.1,29.96,North,-999,16.1,-999.0,61,-99.99,,,-99.99,Acu-Link.com,2013-07-18 18:12:00,
2013-07-18 13:28:00,91.4,73.5,29.95,North,-999,16.1,-999.0,56,-99.99,,,-99.99,Acu-Link.com,2013-07-18 18:28:00,
2013-07-18 13:43:00,91.0,74.1,29.95,North,-999,14.5,-999.0,58,-99.99,,,-99.99,Acu-Link.com,2013-07-18 18:43:00,
2013-07-18 13:58:00,90.8,75.5,29.94,North,-999,4.8,-999.0,61,-99.99,,,-99.99,Acu-Link.com,2013-07-18 18:58:00,
2013-07-18 14:14:00,92.7,74.7,29.93,North,-999,9.6,-999.0,56,-99.99,,,-99.99,Acu-Link.com,2013-07-18 19:14:00,
2013-07-18 14:29:00,92.5,73.9,29.93,North,-999,16.1,-999.0,55,-99.99,,,-99.99,Acu-Link.com,2013-07-18 19:29:00,
2013-07-18 14:44:00,93.7,73.4,29.92,North,-999,17.7,-999.0,52,-99.99,,,-99.99,Acu-Link.com,2013-07-18 19:44:00,
2013-07-18 14:59:00,93.1,73.9,29.92,North,-999,8.0,-999.0,54,-99.99,,,-99.99,Acu-Link.com,2013-07-18 19:59:00,
2013-07-18 15:14:00,93.4,74.8,29.91,North,-999,8.0,-999.0,55,-99.99,,,-99.99,Acu-Link.com,2013-07-18 20:14:00,
2013-07-18 15:30:00,92.8,74.8,29.90,North,-999,3.2,-999.0,56,-99.99,,,-99.99,Acu-Link.com,2013-07-18 20:30:00,
2013-07-18 15:45:00,94.3,74.5,29.90,North,-999,11.2,-999.0,53,-99.99,,,-99.99,Acu-Link.com,2013-07-18 20:45:00,
2013-07-18 16:00:00,92.1,74.1,29.90,North,-999,6.4,-999.0,56,-99.99,,,-99.99,Acu-Link.com,2013-07-18 21:00:00,
2013-07-18 16:15:00,90.4,72.5,29.89,North,-999,12.8,-999.0,56,-99.99,,,-99.99,Acu-Link.com,2013-07-18 21:15:00,
2013-07-18 16:30:00,90.1,72.8,29.89,North,-999,9.6,-999.0,57,-99.99,,,-99.99,Acu-Link.com,2013-07-18 21:30:00,
2013-07-18 16:46:00,91.7,73.2,29.89,North,-999,4.8,-999.0,55,-99.99,,,-99.99,Acu-Link.com,2013-07-18 21:46:00,
2013-07-18 17:01:00,91.8,72.2,29.89,North,-999,17.7,-999.0,53,-99.99,,,-99.99,Acu-Link.com,2013-07-18 22:01:00,
2013-07-18 17:16:00,91.9,74.4,29.87,North,-999,4.8,-999.0,57,-99.99,,,-99.99,Acu-Link.com,2013-07-18 22:16:00,
2013-07-18 17:31:00,92.6,74.0,29.87,North,-999,6.4,-999.0,55,-99.99,,,-99.99,Acu-Link.com,2013-07-18 22:31:00,
2013-07-18 17:47:00,93.2,74.0,29.87,North,-999,8.0,-999.0,54,-99.99,,,-99.99,Acu-Link.com,2013-07-18 22:47:00,
2013-07-18 18:02:00,93.8,73.5,29.86,North,-999,6.4,-999.0,52,-99.99,,,-99.99,Acu-Link.com,2013-07-18 23:02:00,
2013-07-18 18:18:00,92.2,73.7,29.85,North,-999,4.8,-999.0,55,-99.99,,,-99.99,Acu-Link.com,2013-07-18 23:18:00,
2013-07-18 18:33:00,91.1,72.6,29.85,North,-999,3.2,-999.0,55,-99.99,,,-99.99,Acu-Link.com,2013-07-18 23:33:00,
2013-07-18 18:48:00,91.3,73.4,29.84,North,-999,0.0,-999.0,56,-99.99,,,-99.99,Acu-Link.com,2013-07-18 23:48:00,
2013-07-18 19:04:00,90.6,71.6,29.84,North,-999,6.4,-999.0,54,-99.99,,,-99.99,Acu-Link.com,2013-07-19 00:04:00,
2013-07-18 19:19:00,90.1,72.3,29.83,North,-999,3.2,-999.0,56,-99.99,,,-99.99,Acu-Link.com,2013-07-19 00:19:00,
2013-07-18 19:34:00,89.2,71.9,29.83,North,-999,3.2,-999.0,57,-99.99,,,-99.99,Acu-Link.com,2013-07-19 00:34:00,
2013-07-18 19:50:00,87.4,71.3,29.83,North,-999,4.8,-999.0,59,-99.99,,,-99.99,Acu-Link.com,2013-07-19 00:50:00,
2013-07-18 20:05:00,85.7,71.6,29.83,North,-999,0.0,-999.0,63,-99.99,,,-99.99,Acu-Link.com,2013-07-19 01:05:00,
2013-07-18 20:20:00,84.9,71.8,29.82,North,-999,0.0,-999.0,65,-99.99,,,-99.99,Acu-Link.com,2013-07-19 01:20:00,
2013-07-18 20:35:00,84.2,72.0,29.83,North,-999,0.0,-999.0,67,-99.99,,,-99.99,Acu-Link.com,2013-07-19 01:35:00,
2013-07-18 20:51:00,82.9,72.1,29.82,North,-999,1.6,-999.0,70,-99.99,,,-99.99,Acu-Link.com,2013-07-19 01:51:00,
2013-07-18 21:06:00,82.2,72.3,29.82,North,-999,0.0,-999.0,72,-99.99,,,-99.99,Acu-Link.com,2013-07-19 02:06:00,
2013-07-18 21:21:00,81.3,72.2,29.82,North,-999,0.0,-999.0,74,-99.99,,,-99.99,Acu-Link.com,2013-07-19 02:21:00,
2013-07-18 21:36:00,81.0,71.9,29.82,North,-999,0.0,-999.0,74,-99.99,,,-99.99,Acu-Link.com,2013-07-19 02:36:00,
2013-07-18 21:52:00,80.5,71.8,29.83,North,-999,0.0,-999.0,75,-99.99,,,-99.99,Acu-Link.com,2013-07-19 02:52:00,
2013-07-18 22:07:00,80.4,71.7,29.84,North,-999,0.0,-999.0,75,-99.99,,,-99.99,Acu-Link.com,2013-07-19 03:07:00,
2013-07-18 22:22:00,80.4,71.3,29.84,North,-999,0.0,-999.0,74,-99.99,,,-99.99,Acu-Link.com,2013-07-19 03:22:00,
2013-07-18 22:38:00,79.7,71.1,29.85,North,-999,4.8,-999.0,75,-99.99,,,-99.99,Acu-Link.com,2013-07-19 03:38:00,
2013-07-18 22:53:00,78.7,71.2,29.85,North,-999,1.6,-999.0,78,-99.99,,,-99.99,Acu-Link.com,2013-07-19 03:53:00,
2013-07-18 23:08:00,78.9,71.1,29.85,North,-999,1.6,-999.0,77,-99.99,,,-99.99,Acu-Link.com,2013-07-19 04:08:00,
2013-07-18 23:23:00,78.6,70.8,29.85,North,-999,0.0,-999.0,77,-99.99,,,-99.99,Acu-Link.com,2013-07-19 04:23:00,
2013-07-18 23:38:00,78.9,70.7,29.85,North,-999,1.6,-999.0,76,-99.99,,,-99.99,Acu-Link.com,2013-07-19 04:38:00,
2013-07-18 23:54:00,79.3,70.7,29.85,North,-999,3.2,-999.0,75,-99.99,,,-99.99,Acu-Link.com,2013-07-19 04:54:00,